createdAt,value
2018-09-22T00:01:50.587Z,20.80
2018-09-22T00:04:20.254Z,20.80
2018-09-22T00:06:49.932Z,20.80
2018-09-22T00:09:20.473Z,20.80
2018-09-22T00:11:50.206Z,20.70
2018-09-22T00:14:19.731Z,20.70
2018-09-22T00:16:49.203Z,20.60
2018-09-22T00:19:19.023Z,20.60
2018-09-22T00:21:48.738Z,20.60
2018-09-22T00:24:18.520Z,20.60
2018-09-22T00:26:48.785Z,20.60
2018-09-22T00:29:18.285Z,20.60
2018-09-22T00:31:47.905Z,20.60
2018-09-22T00:34:17.587Z,20.50
2018-09-22T00:36:47.204Z,20.50
2018-09-22T00:39:16.786Z,20.50
2018-09-22T00:41:46.536Z,20.50
2018-09-22T00:44:16.204Z,20.50
2018-09-22T00:46:46.003Z,20.40
2018-09-22T00:49:15.676Z,20.40
2018-09-22T00:51:45.229Z,20.40
2018-09-22T00:54:15.130Z,20.40
2018-09-22T00:56:44.665Z,20.40
2018-09-22T00:59:15.889Z,20.40
2018-09-22T01:01:46.358Z,20.30
2018-09-22T01:04:15.847Z,20.30
2018-09-22T01:06:45.427Z,20.30
2018-09-22T01:09:14.997Z,20.30
2018-09-22T01:11:44.499Z,20.30
2018-09-22T01:14:14.062Z,20.20
2018-09-22T01:16:43.617Z,20.20
2018-09-22T01:19:13.213Z,20.20
2018-09-22T01:21:42.661Z,20.20
2018-09-22T01:24:12.090Z,20.10
2018-09-22T01:26:42.426Z,20.10
2018-09-22T01:29:16.027Z,20.10
2018-09-22T01:31:46.257Z,20.10
2018-09-22T01:34:15.955Z,20.10
2018-09-22T01:36:45.787Z,20.00
2018-09-22T01:39:15.463Z,20.00
2018-09-22T01:41:45.000Z,20.00
2018-09-22T01:44:17.701Z,20.00
2018-09-22T01:46:48.033Z,20.00
2018-09-22T01:49:17.688Z,20.00
2018-09-22T01:51:47.643Z,20.00
2018-09-22T01:54:17.377Z,19.90
2018-09-22T01:56:47.201Z,20.00
2018-09-22T01:59:16.968Z,19.90
2018-09-22T02:01:46.713Z,19.90
2018-09-22T02:04:16.617Z,19.90
2018-09-22T02:06:46.206Z,19.90
2018-09-22T02:09:15.990Z,19.90
2018-09-22T02:11:45.492Z,19.90
2018-09-22T02:14:15.330Z,19.90
2018-09-22T02:16:44.898Z,19.80
2018-09-22T02:19:14.607Z,19.80
2018-09-22T02:21:44.407Z,19.80
2018-09-22T02:24:14.553Z,19.80
2018-09-22T02:26:44.145Z,19.80
2018-09-22T02:29:14.037Z,19.80
2018-09-22T02:31:45.144Z,19.80
2018-09-22T02:34:14.952Z,19.70
2018-09-22T02:36:44.505Z,19.70
2018-09-22T02:39:14.223Z,19.70
2018-09-22T02:41:43.947Z,19.70
2018-09-22T02:44:13.960Z,19.70
2018-09-22T02:46:43.405Z,19.60
2018-09-22T02:49:12.943Z,19.60
2018-09-22T02:51:42.501Z,19.60
2018-09-22T02:54:12.341Z,19.60
2018-09-22T02:56:42.185Z,19.60
2018-09-22T02:59:12.204Z,19.60
2018-09-22T03:01:42.098Z,19.60
2018-09-22T03:04:12.094Z,19.60
2018-09-22T03:06:41.899Z,19.60
2018-09-22T03:09:11.935Z,19.50
2018-09-22T03:11:41.386Z,19.50
2018-09-22T03:14:11.651Z,19.50
2018-09-22T03:16:41.805Z,19.50
2018-09-22T03:19:11.650Z,19.50
2018-09-22T03:21:41.852Z,19.40
2018-09-22T03:24:11.741Z,19.40
2018-09-22T03:26:41.228Z,19.40
2018-09-22T03:29:10.872Z,19.40
2018-09-22T03:31:41.588Z,19.40
2018-09-22T03:34:11.360Z,19.40
2018-09-22T03:36:41.290Z,19.40
2018-09-22T03:39:12.407Z,19.40
2018-09-22T03:41:42.298Z,19.30
2018-09-22T03:44:12.208Z,19.30
2018-09-22T03:46:42.288Z,19.30
2018-09-22T03:49:11.996Z,19.30
2018-09-22T03:51:42.056Z,19.30
2018-09-22T03:54:11.612Z,19.30
2018-09-22T03:56:41.420Z,19.20
2018-09-22T03:59:18.637Z,19.20
2018-09-22T04:01:48.402Z,19.20
2018-09-22T04:04:18.841Z,19.20
2018-09-22T04:06:48.900Z,19.20
2018-09-22T04:09:18.473Z,19.20
2018-09-22T04:11:48.314Z,19.20
2018-09-22T04:14:18.036Z,19.20
2018-09-22T04:16:49.128Z,19.20
2018-09-22T04:19:19.054Z,19.10
2018-09-22T04:21:48.898Z,19.10
2018-09-22T04:24:20.776Z,19.10
2018-09-22T04:26:52.660Z,19.10
2018-09-22T04:29:22.656Z,19.10
2018-09-22T04:31:53.838Z,19.10
2018-09-22T04:34:23.584Z,19.10
2018-09-22T04:36:53.362Z,19.00
2018-09-22T04:39:23.703Z,19.00
2018-09-22T04:41:54.858Z,19.00
2018-09-22T04:44:27.394Z,19.00
2018-09-22T04:46:57.718Z,19.00
2018-09-22T04:49:27.469Z,19.00
2018-09-22T04:51:56.949Z,18.90
2018-09-22T04:54:26.461Z,18.90
2018-09-22T04:56:55.992Z,18.90
2018-09-22T04:59:25.484Z,18.90
2018-09-22T05:01:55.242Z,18.90
2018-09-22T05:04:24.746Z,18.90
2018-09-22T05:06:54.249Z,18.90
2018-09-22T05:09:24.116Z,18.90
2018-09-22T05:11:53.702Z,18.90
2018-09-22T05:14:23.245Z,18.90
2018-09-22T05:16:52.901Z,18.90
2018-09-22T05:19:22.433Z,18.90
2018-09-22T05:21:51.826Z,18.90
2018-09-22T05:24:21.342Z,18.90
2018-09-22T05:26:50.902Z,18.90
2018-09-22T05:29:20.457Z,18.90
2018-09-22T05:31:49.888Z,18.90
2018-09-22T05:34:19.567Z,19.00
2018-09-22T05:36:49.074Z,19.00
2018-09-22T05:39:18.668Z,19.00
2018-09-22T05:41:48.464Z,19.00
2018-09-22T05:44:17.925Z,19.00
2018-09-22T05:46:47.467Z,19.00
2018-09-22T05:49:17.199Z,19.10
2018-09-22T05:51:46.797Z,19.10
2018-09-22T05:54:16.434Z,19.10
2018-09-22T05:56:45.917Z,19.10
2018-09-22T05:59:15.579Z,19.10
2018-09-22T06:01:45.182Z,19.20
2018-09-22T06:04:15.157Z,19.20
2018-09-22T06:06:44.728Z,19.20
2018-09-22T06:09:15.501Z,19.20
2018-09-22T06:11:45.025Z,19.20
2018-09-22T06:14:14.714Z,19.20
2018-09-22T06:16:44.172Z,19.20
2018-09-22T06:19:14.800Z,19.30
2018-09-22T06:21:44.226Z,19.30
2018-09-22T06:24:14.004Z,19.30
2018-09-22T06:26:43.443Z,19.30
2018-09-22T06:29:13.858Z,19.40
2018-09-22T06:31:43.306Z,19.40
2018-09-22T06:34:12.738Z,19.40
2018-09-22T06:36:42.266Z,19.50
2018-09-22T06:39:12.629Z,19.50
2018-09-22T06:41:43.061Z,19.50
2018-09-22T06:44:12.645Z,19.50
2018-09-22T06:46:42.123Z,19.50
2018-09-22T06:49:11.900Z,19.60
2018-09-22T06:51:41.420Z,19.60
2018-09-22T06:54:10.814Z,19.60
2018-09-22T06:56:40.394Z,19.60
2018-09-22T06:59:10.251Z,19.70
2018-09-22T07:01:39.646Z,19.70
2018-09-22T07:04:09.247Z,19.70
2018-09-22T07:06:38.740Z,19.80
2018-09-22T07:09:08.747Z,19.80
2018-09-22T07:11:38.984Z,19.80
2018-09-22T07:14:08.413Z,19.90
2018-09-22T07:16:38.083Z,19.90
2018-09-22T07:19:07.744Z,19.90
2018-09-22T07:21:42.395Z,20.00
2018-09-22T07:24:11.956Z,20.00
2018-09-22T07:26:41.816Z,20.00
2018-09-22T07:29:11.502Z,20.00
2018-09-22T07:31:41.004Z,20.10
2018-09-22T07:34:10.666Z,20.10
2018-09-22T07:36:40.275Z,20.20
2018-09-22T07:39:11.546Z,20.20
2018-09-22T07:41:41.066Z,20.30
2018-09-22T07:44:10.732Z,20.40
2018-09-22T07:46:40.502Z,20.50
2018-09-22T07:49:10.386Z,20.70
2018-09-22T07:51:40.197Z,20.90
2018-09-22T07:54:10.410Z,21.10
2018-09-22T07:56:40.065Z,21.30
2018-09-22T07:59:09.770Z,21.60
2018-09-22T08:01:39.205Z,21.90
2018-09-22T08:04:09.104Z,22.10
2018-09-22T08:06:38.862Z,22.40
2018-09-22T08:09:08.874Z,22.70
2018-09-22T08:11:38.442Z,23.00
2018-09-22T08:14:08.505Z,23.30
2018-09-22T08:16:38.203Z,23.60
2018-09-22T08:19:08.281Z,23.90
2018-09-22T08:21:37.820Z,24.20
2018-09-22T08:24:07.608Z,24.40
2018-09-22T08:26:38.468Z,24.60
2018-09-22T08:29:08.460Z,24.80
2018-09-22T08:31:38.536Z,25.00
2018-09-22T08:34:08.276Z,25.00
2018-09-22T08:36:38.296Z,25.10
2018-09-22T08:39:11.084Z,25.10
2018-09-22T08:41:41.110Z,25.10
2018-09-22T08:44:10.877Z,25.00
2018-09-22T08:46:41.226Z,24.90
2018-09-22T08:49:12.975Z,24.80
2018-09-22T08:51:42.532Z,24.70
2018-09-22T08:54:12.701Z,24.50
2018-09-22T08:56:43.418Z,24.40
2018-09-22T08:59:13.781Z,24.30
2018-09-22T09:01:44.267Z,24.20
2018-09-22T09:04:13.990Z,24.10
2018-09-22T09:06:44.184Z,24.00
2018-09-22T09:09:14.170Z,23.90
2018-09-22T09:11:43.912Z,23.80
2018-09-22T09:14:13.968Z,23.80
2018-09-22T09:16:43.669Z,23.70
2018-09-22T09:19:13.345Z,23.60
2018-09-22T09:21:42.916Z,23.50
2018-09-22T09:24:12.548Z,23.40
2018-09-22T09:26:42.226Z,23.30
2018-09-22T09:29:12.528Z,23.30
2018-09-22T09:31:42.604Z,23.30
2018-09-22T09:34:12.356Z,23.20
2018-09-22T09:36:42.048Z,23.20
2018-09-22T09:39:11.629Z,23.10
2018-09-22T09:41:41.278Z,23.10
2018-09-22T09:44:10.771Z,23.10
2018-09-22T09:46:40.738Z,23.00
2018-09-22T09:49:10.270Z,23.00
2018-09-22T09:51:46.472Z,23.00
2018-09-22T09:54:16.150Z,23.00
2018-09-22T09:56:46.865Z,22.90
2018-09-22T09:59:16.767Z,22.90
2018-09-22T10:01:46.499Z,22.90
2018-09-22T10:04:16.142Z,22.90
2018-09-22T10:06:45.525Z,22.90
2018-09-22T10:09:15.079Z,22.90
2018-09-22T10:11:45.457Z,22.80
2018-09-22T10:14:14.939Z,22.80
2018-09-22T10:16:45.244Z,22.80
2018-09-22T10:19:14.796Z,22.80
2018-09-22T10:21:47.132Z,22.80
2018-09-22T10:24:17.428Z,22.80
2018-09-22T10:26:47.821Z,22.80
2018-09-22T10:29:17.331Z,22.80
2018-09-22T10:31:48.310Z,22.80
2018-09-22T10:34:19.623Z,22.80
2018-09-22T10:36:49.311Z,22.80
2018-09-22T10:39:19.216Z,22.80
2018-09-22T10:41:48.668Z,22.80
2018-09-22T10:44:18.173Z,22.80
2018-09-22T10:46:47.888Z,22.80
2018-09-22T10:49:18.772Z,22.80
2018-09-22T10:51:48.722Z,22.80
2018-09-22T10:54:18.356Z,22.80
2018-09-22T10:56:48.556Z,22.80
2018-09-22T10:59:18.894Z,22.70
2018-09-22T11:01:49.201Z,22.70
2018-09-22T11:04:18.867Z,22.70
2018-09-22T11:06:52.456Z,22.70
2018-09-22T11:09:22.189Z,22.70
2018-09-22T11:11:51.904Z,22.70
2018-09-22T11:14:22.510Z,22.70
2018-09-22T11:16:52.220Z,22.70
2018-09-22T11:19:21.945Z,22.70
2018-09-22T11:21:51.644Z,22.70
2018-09-22T11:24:21.290Z,22.70
2018-09-22T11:26:51.834Z,22.70
2018-09-22T11:29:21.521Z,22.70
2018-09-22T11:31:51.321Z,22.70
2018-09-22T11:34:21.750Z,22.60
2018-09-22T11:36:51.390Z,22.60
2018-09-22T11:39:20.960Z,22.60
2018-09-22T11:41:50.502Z,22.70
2018-09-22T11:44:20.068Z,22.70
2018-09-22T11:46:49.680Z,22.60
2018-09-22T11:49:19.201Z,22.60
2018-09-22T11:51:48.650Z,22.60
2018-09-22T11:54:18.239Z,22.50
2018-09-22T11:56:47.650Z,22.60
2018-09-22T11:59:17.435Z,22.50
2018-09-22T12:01:47.229Z,22.60
2018-09-22T12:04:16.931Z,22.50
2018-09-22T12:06:46.572Z,22.50
2018-09-22T12:09:16.196Z,22.50
2018-09-22T12:11:45.776Z,22.50
2018-09-22T12:14:15.241Z,22.50
2018-09-22T12:16:44.798Z,22.60
2018-09-22T12:19:14.305Z,22.60
2018-09-22T12:21:43.967Z,22.60
2018-09-22T12:24:13.597Z,22.60
2018-09-22T12:26:43.257Z,22.60
2018-09-22T12:29:12.867Z,22.60
2018-09-22T12:31:42.459Z,22.60
2018-09-22T12:34:11.873Z,22.60
2018-09-22T12:36:41.627Z,22.70
2018-09-22T12:39:12.632Z,22.70
2018-09-22T12:41:42.236Z,22.70
2018-09-22T12:44:12.133Z,22.70
2018-09-22T12:46:41.624Z,22.70
2018-09-22T12:49:11.352Z,22.70
2018-09-22T12:51:41.032Z,22.70
2018-09-22T12:54:10.783Z,22.70
2018-09-22T12:56:40.358Z,22.70
2018-09-22T12:59:11.171Z,22.70
2018-09-22T13:01:40.861Z,22.70
2018-09-22T13:04:10.630Z,22.70
2018-09-22T13:06:40.270Z,22.70
2018-09-22T13:09:11.138Z,22.60
2018-09-22T13:11:40.811Z,22.70
2018-09-22T13:14:10.838Z,22.70
2018-09-22T13:16:40.370Z,22.70
2018-09-22T13:19:09.896Z,22.70
2018-09-22T13:21:39.739Z,22.70
2018-09-22T13:24:09.488Z,22.70
2018-09-22T13:26:39.089Z,22.70
2018-09-22T13:29:08.496Z,22.70
2018-09-22T13:31:37.983Z,22.80
2018-09-22T13:34:07.598Z,22.80
2018-09-22T13:36:37.318Z,22.80
2018-09-22T13:39:11.754Z,22.80
2018-09-22T13:41:41.796Z,22.80
2018-09-22T13:44:11.451Z,22.80
2018-09-22T13:46:41.035Z,22.70
2018-09-22T13:49:11.460Z,22.70
2018-09-22T13:51:40.855Z,22.80
2018-09-22T13:54:10.680Z,22.80
2018-09-22T13:56:40.208Z,22.80
2018-09-22T13:59:09.664Z,22.80
2018-09-22T14:01:39.176Z,22.80
2018-09-22T14:04:08.664Z,22.80
2018-09-22T14:06:39.011Z,22.80
2018-09-22T14:09:11.814Z,22.80
2018-09-22T14:11:41.570Z,22.80
2018-09-22T14:14:11.345Z,22.80
2018-09-22T14:16:41.062Z,22.80
2018-09-22T14:19:11.596Z,22.80
2018-09-22T14:21:41.806Z,22.80
2018-09-22T14:24:12.107Z,22.80
2018-09-22T14:26:41.745Z,22.80
2018-09-22T14:29:11.402Z,22.80
2018-09-22T14:31:41.019Z,22.80
2018-09-22T14:34:10.738Z,22.80
2018-09-22T14:36:40.180Z,22.70
2018-09-22T14:39:10.724Z,22.70
2018-09-22T14:41:40.988Z,22.70
2018-09-22T14:44:10.826Z,22.70
2018-09-22T14:46:41.563Z,22.70
2018-09-22T14:49:11.584Z,22.70
2018-09-22T14:51:41.372Z,22.70
2018-09-22T14:54:11.735Z,22.70
2018-09-22T14:56:41.191Z,22.70
2018-09-22T14:59:10.872Z,22.70
2018-09-22T15:01:40.554Z,22.70
2018-09-22T15:04:10.105Z,22.70
2018-09-22T15:06:39.851Z,22.60
2018-09-22T15:09:09.474Z,22.60
2018-09-22T15:11:38.933Z,22.60
2018-09-22T15:14:08.662Z,22.60
2018-09-22T15:16:38.114Z,22.60
2018-09-22T15:19:07.730Z,22.50
2018-09-22T15:21:37.358Z,22.60
2018-09-22T15:24:06.898Z,22.60
2018-09-22T15:26:36.739Z,22.60
2018-09-22T15:29:06.469Z,22.60
2018-09-22T15:31:36.494Z,22.60
2018-09-22T15:34:06.354Z,22.60
2018-09-22T15:36:35.894Z,22.60
2018-09-22T15:39:07.377Z,22.60
2018-09-22T15:41:37.175Z,22.60
2018-09-22T15:44:07.217Z,22.60
2018-09-22T15:46:37.583Z,22.60
2018-09-22T15:49:07.422Z,22.60
2018-09-22T15:51:36.989Z,22.50
2018-09-22T15:54:06.371Z,22.50
2018-09-22T15:56:35.828Z,22.50
2018-09-22T15:59:05.602Z,22.50
2018-09-22T16:01:35.208Z,22.50
2018-09-22T16:04:04.882Z,22.50
2018-09-22T16:06:34.441Z,22.50
2018-09-22T16:09:05.412Z,22.50
2018-09-22T16:11:35.268Z,22.40
2018-09-22T16:14:04.853Z,22.40
2018-09-22T16:16:34.243Z,22.40
2018-09-22T16:19:04.113Z,22.40
2018-09-22T16:21:33.961Z,22.40
2018-09-22T16:24:03.862Z,22.40
2018-09-22T16:26:33.314Z,22.40
2018-09-22T16:29:02.962Z,22.30
2018-09-22T16:31:32.909Z,22.30
2018-09-22T16:34:03.866Z,22.30
2018-09-22T16:36:33.338Z,22.30
2018-09-22T16:39:02.786Z,22.30
2018-09-22T16:41:33.114Z,22.20
2018-09-22T16:44:03.485Z,22.20
2018-09-22T16:46:33.367Z,22.20
2018-09-22T16:49:03.093Z,22.20
2018-09-22T16:51:33.058Z,22.20
2018-09-22T16:54:02.570Z,22.10
2018-09-22T16:56:32.381Z,22.10
2018-09-22T16:59:02.109Z,22.10
2018-09-22T17:01:32.054Z,22.10
2018-09-22T17:04:02.189Z,22.10
2018-09-22T17:06:31.984Z,22.00
2018-09-22T17:09:01.583Z,22.00
2018-09-22T17:11:32.449Z,22.00
2018-09-22T17:14:03.648Z,22.00
2018-09-22T17:16:34.290Z,22.00
2018-09-22T17:19:07.016Z,21.90
2018-09-22T17:21:38.029Z,21.90
2018-09-22T17:24:08.215Z,21.90
2018-09-22T17:26:39.090Z,21.90
2018-09-22T17:29:09.262Z,21.90
2018-09-22T17:31:40.206Z,21.90
2018-09-22T17:34:09.814Z,21.90
2018-09-22T17:36:39.341Z,21.80
2018-09-22T17:39:10.467Z,21.80
2018-09-22T17:41:40.703Z,21.80
2018-09-22T17:44:10.480Z,21.80
2018-09-22T17:46:40.583Z,21.80
2018-09-22T17:49:10.389Z,21.80
2018-09-22T17:51:39.975Z,21.70
2018-09-22T17:54:09.620Z,21.70
2018-09-22T17:56:40.971Z,21.70
2018-09-22T17:59:10.696Z,21.60
2018-09-22T18:01:40.226Z,21.60
2018-09-22T18:04:10.446Z,21.60
2018-09-22T18:06:40.277Z,21.50
2018-09-22T18:09:10.347Z,21.50
2018-09-22T18:11:40.622Z,21.50
2018-09-22T18:14:10.317Z,21.50
2018-09-22T18:16:40.636Z,21.50
2018-09-22T18:19:10.275Z,21.40
2018-09-22T18:21:39.973Z,21.40
2018-09-22T18:24:09.608Z,21.40
2018-09-22T18:26:39.076Z,21.40
2018-09-22T18:29:09.192Z,21.40
2018-09-22T18:31:38.928Z,21.40
2018-09-22T18:34:08.447Z,21.30
2018-09-22T18:36:37.898Z,21.30
2018-09-22T18:39:08.969Z,21.30
2018-09-22T18:41:38.912Z,21.30
2018-09-22T18:44:08.384Z,21.30
2018-09-22T18:46:38.123Z,21.30
2018-09-22T18:49:08.553Z,21.30
2018-09-22T18:51:38.273Z,21.30
2018-09-22T18:54:08.035Z,21.30
2018-09-22T18:56:37.587Z,21.20
2018-09-22T18:59:07.742Z,21.20
2018-09-22T19:01:37.283Z,21.20
2018-09-22T19:04:06.931Z,21.20
2018-09-22T19:06:36.559Z,21.20
2018-09-22T19:09:08.823Z,21.20
2018-09-22T19:11:38.335Z,21.20
2018-09-22T19:14:18.331Z,21.10
2018-09-22T19:16:52.312Z,21.10
2018-09-22T19:19:28.261Z,21.10
2018-09-22T19:22:02.817Z,21.10
2018-09-22T19:25:04.213Z,21.10
2018-09-22T19:27:51.468Z,21.00
2018-09-22T19:30:51.881Z,20.90
2018-09-22T19:33:29.333Z,20.90
2018-09-22T19:36:04.039Z,20.90
2018-09-22T19:38:38.314Z,20.90
2018-09-22T19:41:14.056Z,20.90
2018-09-22T19:43:49.667Z,20.90
2018-09-22T19:46:24.376Z,20.90
2018-09-22T19:49:06.549Z,20.90
2018-09-22T19:51:39.811Z,20.90
2018-09-22T19:54:09.387Z,20.90
2018-09-22T19:56:39.032Z,20.90
2018-09-22T19:59:08.977Z,20.90
2018-09-22T20:01:39.014Z,20.90
2018-09-22T20:04:09.153Z,20.90
2018-09-22T20:06:38.711Z,20.90
2018-09-22T20:09:08.388Z,20.90
2018-09-22T20:11:37.947Z,20.90
2018-09-22T20:14:07.802Z,20.90
2018-09-22T20:16:37.291Z,20.90
2018-09-22T20:19:06.867Z,20.90
2018-09-22T20:21:36.481Z,20.90
2018-09-22T20:24:06.152Z,20.90
2018-09-22T20:26:35.667Z,20.90
2018-09-22T20:29:05.306Z,20.90
2018-09-22T20:31:35.531Z,20.90
2018-09-22T20:34:05.158Z,20.90
2018-09-22T20:36:34.916Z,20.90
2018-09-22T20:39:05.387Z,20.90
2018-09-22T20:41:35.256Z,20.90
2018-09-22T20:44:05.175Z,20.90
2018-09-22T20:46:35.650Z,20.90
2018-09-22T20:49:06.150Z,20.90
2018-09-22T20:51:35.783Z,20.90
2018-09-22T20:54:05.389Z,20.90
2018-09-22T20:56:35.745Z,20.90
2018-09-22T20:59:05.945Z,20.90
2018-09-22T21:01:36.534Z,20.90
2018-09-22T21:04:06.497Z,20.80
2018-09-22T21:06:36.788Z,20.90
2018-09-22T21:09:09.019Z,20.80
2018-09-22T21:11:39.034Z,20.80
2018-09-22T21:14:08.704Z,20.80
2018-09-22T21:16:38.323Z,20.90
2018-09-22T21:19:08.524Z,20.90
2018-09-22T21:21:39.026Z,20.80
2018-09-22T21:24:08.869Z,20.90
2018-09-22T21:26:38.399Z,20.80
2018-09-22T21:29:08.622Z,20.90
2018-09-22T21:31:38.238Z,20.80
2018-09-22T21:34:08.034Z,20.80
2018-09-22T21:36:37.562Z,20.80
2018-09-22T21:39:10.018Z,20.80
2018-09-22T21:41:39.978Z,20.80
2018-09-22T21:44:09.555Z,20.80
2018-09-22T21:46:39.228Z,20.80
2018-09-22T21:49:08.893Z,20.80
2018-09-22T21:51:38.590Z,20.80
2018-09-22T21:54:09.250Z,20.80
2018-09-22T21:56:38.756Z,20.80
2018-09-22T21:59:08.359Z,20.80
2018-09-22T22:01:39.618Z,20.80
2018-09-22T22:04:10.402Z,20.80
2018-09-22T22:06:40.060Z,20.70
2018-09-22T22:09:11.642Z,20.70
2018-09-22T22:11:41.698Z,20.70
2018-09-22T22:14:11.747Z,20.70
2018-09-22T22:16:41.626Z,20.70
2018-09-22T22:19:11.222Z,20.70
2018-09-22T22:21:40.738Z,20.70
2018-09-22T22:24:10.293Z,20.70
2018-09-22T22:26:39.797Z,20.70
2018-09-22T22:29:09.944Z,20.70
2018-09-22T22:31:39.754Z,20.70
2018-09-22T22:34:09.245Z,20.70
2018-09-22T22:36:38.757Z,20.60
2018-09-22T22:39:08.658Z,20.60
2018-09-22T22:41:38.901Z,20.60
2018-09-22T22:44:08.785Z,20.60
2018-09-22T22:46:38.363Z,20.60
2018-09-22T22:49:08.066Z,20.50
2018-09-22T22:51:37.745Z,20.50
2018-09-22T22:54:07.640Z,20.50
2018-09-22T22:56:37.344Z,20.40
2018-09-22T22:59:07.184Z,20.40
2018-09-22T23:01:38.554Z,20.40
2018-09-22T23:04:08.263Z,20.40
2018-09-22T23:06:38.172Z,20.40
2018-09-22T23:09:09.238Z,20.30
2018-09-22T23:11:39.284Z,20.30
2018-09-22T23:14:08.822Z,20.30
2018-09-22T23:16:39.580Z,20.20
2018-09-22T23:19:09.589Z,20.20
2018-09-22T23:21:39.227Z,20.20
2018-09-22T23:24:08.765Z,20.20
2018-09-22T23:26:38.547Z,20.10
2018-09-22T23:29:08.082Z,20.10
2018-09-22T23:31:37.557Z,20.10
2018-09-22T23:34:07.246Z,20.10
2018-09-22T23:36:37.225Z,20.10
2018-09-22T23:39:09.529Z,20.10
2018-09-22T23:41:39.565Z,20.10
2018-09-22T23:44:09.589Z,20.10
2018-09-22T23:46:39.808Z,20.00
2018-09-22T23:49:10.035Z,20.00
2018-09-22T23:51:39.604Z,20.00
2018-09-22T23:54:09.828Z,20.00
2018-09-22T23:56:39.617Z,20.00
2018-09-22T23:59:09.153Z,20.00
